Time;durP1;ratioP1;P1;durP2;ratioP2;P2;SDS_P1;SDS_P2;PMS_P1;PMS_P2;Temp;Humidity;BMP_temperature;BMP_pressure;BME280_temperature;BME280_humidity;BME280_pressure;Samples;Min_cycle;Max_cycle;Signal;HPM_P1;HPM_P2
2022/11/20 00:01:22;;;;;;;17.90;10.53;;;;;;;-2.36;59.30;99754.63;1748557;82;21536;-40
2022/11/20 00:03:51;;;;;;;16.07;11.00;;;;;;;-2.39;58.73;99761.00;1748855;82;21020;-40
2022/11/20 00:06:20;;;;;;;14.63;10.08;;;;;;;-2.49;58.31;99767.10;1748676;82;20969;-40
2022/11/20 00:08:47;;;;;;;15.75;10.30;;;;;;;-2.60;58.15;99764.16;1748746;82;21073;-40
2022/11/20 00:11:18;;;;;;;16.77;10.30;;;;;;;-2.64;57.94;99770.53;1748799;82;21212;-40
2022/11/20 00:13:45;;;;;;;;;;;;;;;-2.73;57.83;99775.28;1751277;82;21506;-40
2022/11/20 00:16:14;;;;;;;16.23;10.63;;;;;;;-2.92;58.12;99773.64;1748855;81;20538;-40
2022/11/20 00:18:43;;;;;;;16.50;10.93;;;;;;;-3.07;58.61;99765.11;1748959;82;20997;-40
2022/11/20 00:21:14;;;;;;;19.15;12.53;;;;;;;-3.05;58.87;99778.64;1748962;82;21072;-40
2022/11/20 00:23:42;;;;;;;17.23;11.22;;;;;;;-3.05;58.97;99783.95;1748951;82;21514;-39
2022/11/20 00:26:13;;;;;;;17.05;11.53;;;;;;;-3.16;59.30;99779.92;1748945;81;20945;-40
2022/11/20 00:28:42;;;;;;;19.23;12.37;;;;;;;-3.26;59.80;99787.84;1749349;82;21285;-40
2022/11/20 00:31:15;;;;;;;28.38;11.03;;;;;;;-3.26;59.96;99797.64;1749496;82;21045;-40
2022/11/20 00:33:44;;;;;;;15.35;9.15;;;;;;;-3.32;59.81;99808.73;1749490;82;20874;-40
2022/11/20 00:36:16;;;;;;;22.62;9.08;;;;;;;-3.47;60.06;99807.33;1749551;82;21259;-40
2022/11/20 00:38:44;;;;;;;12.40;9.25;;;;;;;-3.55;60.04;99797.22;1749595;82;20957;-40
2022/11/20 00:41:13;;;;;;;14.58;10.20;;;;;;;-3.68;60.26;99802.97;1749138;82;20953;-39
2022/11/20 00:43:40;;;;;;;;;;;;;;;-3.75;60.51;99799.21;1751715;82;20925;-40
2022/11/20 00:46:19;;;;;;;14.68;10.43;;;;;;;-3.80;60.94;99795.72;1749127;82;20131;-40
2022/11/20 00:48:45;;;;;;;17.70;11.12;;;;;;;-3.90;61.25;99796.97;1749184;82;21089;-40
2022/11/20 00:51:15;;;;;;;17.17;11.70;;;;;;;-3.85;61.40;99800.46;1748988;82;21005;-40
2022/11/20 00:53:42;;;;;;;;;;;;;;;-3.80;61.24;99791.75;1751888;82;20929;-40
2022/11/20 00:56:13;;;;;;;13.98;8.98;;;;;;;-3.81;61.30;99779.55;1748893;82;20114;-39
2022/11/20 00:58:42;;;;;;;16.35;10.20;;;;;;;-3.83;61.53;99783.80;1749312;81;21006;-39
2022/11/20 01:01:21;;;;;;;10.85;7.17;;;;;;;-3.85;61.66;99797.81;1749159;82;21225;-40
2022/11/20 01:03:50;;;;;;;13.22;9.43;;;;;;;-3.77;61.96;99786.73;1749249;82;20953;-40
2022/11/20 01:06:23;;;;;;;14.13;10.30;;;;;;;-3.69;62.19;99782.83;1749025;82;21570;-40
2022/11/20 01:08:52;;;;;;;15.85;11.33;;;;;;;-3.54;62.21;99785.57;1749506;82;20997;-40
2022/11/20 01:11:23;;;;;;;16.37;10.90;;;;;;;-3.49;62.01;99781.63;1749132;82;21590;-39
2022/11/20 01:13:53;;;;;;;19.87;12.13;;;;;;;-3.52;62.11;99785.57;1748710;82;21150;-39
2022/11/20 01:16:26;;;;;;;18.52;11.73;;;;;;;-3.58;62.32;99781.81;1749124;82;20890;-39
2022/11/20 01:18:57;;;;;;;18.77;12.25;;;;;;;-3.57;62.43;99777.59;1749403;82;21519;-40
2022/11/20 01:21:26;;;;;;;;;;;;;;;-3.48;62.53;99777.90;1751644;82;21061;-39
2022/11/20 01:23:53;;;;;;;20.12;12.63;;;;;;;-3.35;62.54;99771.35;1749398;82;20437;-40
2022/11/20 01:26:33;;;;;;;19.05;12.53;;;;;;;-3.29;62.50;99772.42;1748736;82;23221;-39
2022/11/20 01:29:01;;;;;;;19.95;12.03;;;;;;;-3.14;62.24;99766.39;1739237;82;20958;-40
2022/11/20 01:31:33;;;;;;;17.92;12.13;;;;;;;-3.00;61.74;99773.36;1735051;82;20993;-40
2022/11/20 01:34:04;;;;;;;21.57;13.00;;;;;;;-2.93;61.55;99771.24;1735030;82;21026;-40
2022/11/20 01:36:32;;;;;;;18.15;12.23;;;;;;;-2.83;61.32;99775.25;1735329;82;21041;-40
2022/11/20 01:39:02;;;;;;;19.55;12.35;;;;;;;-2.77;61.04;99768.91;1735099;82;21112;-41
2022/11/20 01:44:19;;;;;;;17.57;11.90;;;;;;;-2.57;60.80;99788.86;1734801;82;21050;-40
2022/11/20 01:47:02;;;;;;;18.48;12.90;;;;;;;-2.48;60.68;99801.88;1735198;82;20965;-41
2022/11/20 01:49:58;;;;;;;17.00;12.37;;;;;;;-2.44;60.68;99804.80;1734878;82;21030;-41
2022/11/20 01:52:36;;;;;;;20.43;14.20;;;;;;;-2.46;60.88;99805.05;1734892;82;21086;-40
2022/11/20 01:55:14;;;;;;;21.55;14.98;;;;;;;-2.49;60.98;99802.13;1734443;82;21025;-41
2022/11/20 01:57:41;;;;;;;19.37;14.05;;;;;;;-2.54;60.99;99821.51;1734902;82;20942;-41
2022/11/20 02:00:12;;;;;;;24.05;14.80;;;;;;;-2.59;60.89;99823.34;1735112;82;21013;-41
2022/11/20 02:02:42;;;;;;;20.15;13.45;;;;;;;-2.70;61.15;99819.86;1735415;82;20982;-40
2022/11/20 02:05:36;;;;;;;20.25;14.15;;;;;;;-2.65;61.38;99833.14;1735440;82;21136;-40
2022/11/20 02:08:04;;;;;;;22.27;14.60;;;;;;;-2.54;61.52;99824.16;1735184;82;21016;-39
2022/11/20 02:10:31;;;;;;;23.80;15.38;;;;;;;-2.45;61.68;99823.11;1735127;82;21033;-38
2022/11/20 02:15:44;;;;;;;23.83;15.90;;;;;;;-2.37;61.55;99831.35;1735064;82;21054;-38
2022/11/20 02:18:11;;;;;;;22.60;16.17;;;;;;;-2.31;61.55;99823.67;1735020;82;21230;-39
2022/11/20 02:20:42;;;;;;;22.87;15.23;;;;;;;-2.26;61.55;99822.34;1735060;82;20973;-38
2022/11/20 02:23:26;;;;;;;21.40;15.18;;;;;;;-2.20;61.55;99815.99;1735200;82;20974;-38
2022/11/20 02:25:54;;;;;;;25.95;15.85;;;;;;;-2.12;61.58;99817.84;1734794;82;20954;-38
2022/11/20 02:28:21;;;;;;;24.20;15.78;;;;;;;-2.06;61.56;99820.77;1738326;81;20965;-39
2022/11/20 02:30:48;;;;;;;23.50;16.70;;;;;;;-2.02;61.30;99817.84;1749074;82;21543;-40
2022/11/20 02:33:15;;;;;;;22.75;16.17;;;;;;;-2.07;61.17;99809.87;1748840;82;21539;-40
2022/11/20 02:35:45;;;;;;;20.57;15.38;;;;;;;-2.08;61.11;99805.09;1748845;82;21013;-39
2022/11/20 02:38:12;;;;;;;;;;;;;;;-2.07;61.40;99812.00;1751714;82;21071;-40
2022/11/20 02:40:39;;;;;;;21.93;14.65;;;;;;;-2.02;61.22;99811.20;1748896;82;20198;-39
2022/11/20 02:43:05;;;;;;;22.80;15.85;;;;;;;-2.09;61.41;99819.45;1748904;82;21242;-39
2022/11/20 02:45:32;;;;;;;23.45;16.15;;;;;;;-2.06;61.23;99817.59;1748899;82;21012;-40
2022/11/20 02:47:59;;;;;;;24.18;17.00;;;;;;;-2.09;61.19;99816.00;1748881;82;20930;-39
2022/11/20 02:50:26;;;;;;;25.72;17.02;;;;;;;-2.15;61.29;99809.08;1748868;82;21029;-39
2022/11/20 02:52:53;;;;;;;25.52;15.90;;;;;;;-2.18;61.66;99810.95;1749045;82;20981;-40
2022/11/20 02:55:20;;;;;;;22.48;15.65;;;;;;;-2.08;61.73;99820.26;1748999;82;21133;-39
2022/11/20 02:57:48;;;;;;;22.17;15.95;;;;;;;-2.02;61.72;99823.16;1749003;82;21012;-40
2022/11/20 03:00:17;;;;;;;22.80;15.72;;;;;;;-1.97;61.43;99820.50;1749005;82;21045;-39
2022/11/20 03:02:44;;;;;;;24.72;15.45;;;;;;;-2.02;61.27;99820.50;1749384;82;20981;-39
2022/11/20 03:05:10;;;;;;;24.55;16.27;;;;;;;-2.09;61.19;99834.06;1749073;82;21503;-39
2022/11/20 03:07:38;;;;;;;21.93;15.93;;;;;;;-2.18;61.35;99842.30;1748936;82;20965;-40
2022/11/20 03:10:07;;;;;;;22.85;16.02;;;;;;;-2.25;61.34;99847.05;1748823;82;21078;-40
2022/11/20 03:12:36;;;;;;;24.23;16.20;;;;;;;-2.35;61.59;99834.55;1743255;82;21503;-40
2022/11/20 03:15:04;;;;;;;24.72;15.85;;;;;;;-2.39;61.72;99842.78;1748704;82;21016;-39
2022/11/20 03:17:31;;;;;;;24.18;16.25;;;;;;;-2.44;61.91;99846.75;1749187;82;21099;-39
2022/11/20 03:19:58;;;;;;;23.50;15.70;;;;;;;-2.46;61.91;99836.11;1748765;82;23146;-40
2022/11/20 03:22:25;;;;;;;23.27;15.28;;;;;;;-2.47;62.19;99849.91;1748771;82;21001;-40
2022/11/20 03:24:52;;;;;;;24.52;16.60;;;;;;;-2.42;62.28;99848.59;1748920;82;21013;-40
2022/11/20 03:27:19;;;;;;;21.68;14.75;;;;;;;-2.39;62.17;99838.80;1748900;82;20977;-39
2022/11/20 03:29:46;;;;;;;20.85;15.25;;;;;;;-2.34;62.36;99827.39;1738801;81;21057;-39
2022/11/20 03:32:13;;;;;;;19.75;14.35;;;;;;;-2.22;62.62;99827.92;1734978;82;21961;-39
2022/11/20 03:34:41;;;;;;;22.42;15.00;;;;;;;-2.08;62.39;99826.89;1734827;82;20938;-39
2022/11/20 03:37:08;;;;;;;24.63;14.75;;;;;;;-1.98;61.79;99829.53;1734927;82;20942;-39
2022/11/20 03:39:35;;;;;;;22.00;15.35;;;;;;;-2.03;61.87;99826.90;1734868;82;20983;-39
2022/11/20 03:42:44;;;;;;;21.45;15.15;;;;;;;-1.93;61.98;99834.84;1734990;82;21024;-39
2022/11/20 03:44:31;;;;;;;22.37;14.65;;;;;;;-1.87;61.94;99828.48;1725675;82;21145;-40
2022/11/20 03:46:58;;;;;;;22.17;14.20;;;;;;;-1.79;61.74;99826.08;1735027;82;20978;-40
2022/11/20 03:49:24;;;;;;;23.12;14.43;;;;;;;-1.76;61.45;99828.22;1735047;82;21005;-41
2022/11/20 03:51:51;;;;;;;19.15;13.72;;;;;;;-1.74;61.34;99821.84;1735165;82;21538;-40
2022/11/20 03:54:18;;;;;;;20.25;14.25;;;;;;;-1.74;61.42;99816.53;1734964;82;21681;-40
2022/11/20 03:56:46;;;;;;;21.65;14.15;;;;;;;-1.69;61.38;99825.27;1735148;82;21229;-41
2022/11/20 03:59:13;;;;;;;22.45;14.60;;;;;;;-1.69;61.23;99827.93;1735021;82;21024;-41
2022/11/20 04:01:40;;;;;;;21.35;14.10;;;;;;;-1.67;61.26;99832.46;1735148;82;21488;-40
2022/11/20 04:04:07;;;;;;;19.77;13.65;;;;;;;-1.62;61.39;99831.13;1734997;82;21531;-41
2022/11/20 04:06:36;;;;;;;20.90;14.03;;;;;;;-1.54;61.39;99842.54;1734760;82;20933;-40
2022/11/20 04:09:03;;;;;;;21.23;14.45;;;;;;;-1.46;61.30;99831.91;1734999;82;21165;-40
2022/11/20 04:11:32;;;;;;;22.42;14.80;;;;;;;-1.38;61.16;99828.16;1734707;82;21033;-40
2022/11/20 04:14:04;;;;;;;19.62;13.43;;;;;;;-1.32;61.09;99823.63;1735182;82;21005;-41
2022/11/20 04:16:34;;;;;;;21.00;14.25;;;;;;;-1.26;60.77;99812.45;1735239;82;21045;-40
2022/11/20 04:19:03;;;;;;;19.40;14.10;;;;;;;-1.24;60.73;99808.97;1735087;82;21049;-40
2022/11/20 04:21:31;;;;;;;22.25;14.40;;;;;;;-1.22;60.55;99818.29;1735439;82;21083;-40
2022/11/20 04:23:58;;;;;;;20.57;14.40;;;;;;;-1.24;60.71;99817.75;1734932;82;20978;-41
2022/11/20 04:26:27;;;;;;;23.00;14.07;;;;;;;-1.19;60.61;99810.28;1735105;82;21468;-38
2022/11/20 04:28:54;;;;;;;23.15;14.73;;;;;;;-1.23;60.49;99803.92;1738127;81;21009;-39
2022/11/20 04:31:28;;;;;;;23.15;15.10;;;;;;;-1.33;60.61;99792.25;1748954;82;21008;-38
2022/11/20 04:33:55;;;;;;;20.08;13.55;;;;;;;-1.39;61.13;99781.88;1749179;82;21855;-38
2022/11/20 04:36:24;;;;;;;21.05;15.05;;;;;;;-1.38;60.93;99773.65;1749039;82;21542;-38
2022/11/20 04:38:55;;;;;;;23.85;15.88;;;;;;;-1.52;61.12;99768.64;1749388;82;21013;-38
2022/11/20 04:41:25;;;;;;;22.25;14.55;;;;;;;-1.63;61.36;99766.26;1748877;82;21024;-38
2022/11/20 04:44:04;;;;;;;22.00;14.23;;;;;;;-1.80;61.82;99750.09;1749688;82;21531;-38
2022/11/20 04:46:37;;;;;;;23.77;15.08;;;;;;;-1.88;62.24;99752.48;1749173;82;21285;-38
2022/11/20 04:49:04;;;;;;;22.65;14.55;;;;;;;-1.89;62.43;99754.89;1749330;82;21561;-38
2022/11/20 04:51:32;;;;;;;21.27;14.33;;;;;;;-1.89;62.49;99750.91;1749290;82;21447;-38
2022/11/20 04:53:58;;;;;;;20.27;13.78;;;;;;;-1.93;62.49;99749.83;1749141;82;21468;-40
2022/11/20 04:56:25;;;;;;;22.75;15.32;;;;;;;-2.00;62.73;99750.11;1748979;82;20925;-40
2022/11/20 04:58:52;;;;;;;22.77;14.78;;;;;;;-2.00;62.71;99746.66;1749032;82;21230;-39
2022/11/20 05:01:22;;;;;;;20.57;14.95;;;;;;;-2.06;62.93;99745.86;1748955;82;21507;-39
2022/11/20 05:03:53;;;;;;;19.50;13.62;;;;;;;-2.06;62.97;99744.53;1748951;82;21554;-39
2022/11/20 05:06:21;;;;;;;23.87;14.67;;;;;;;-2.09;63.10;99742.95;1749141;82;21001;-39
2022/11/20 05:08:48;;;;;;;23.85;14.85;;;;;;;-2.10;63.26;99745.34;1749345;82;21045;-40
2022/11/20 05:11:20;;;;;;;25.80;14.18;;;;;;;-2.06;63.49;99754.36;1749041;82;21246;-40
2022/11/20 05:13:48;;;;;;;20.72;14.05;;;;;;;-2.08;63.43;99752.52;1749491;82;21009;-39
2022/11/20 05:16:23;;;;;;;20.92;14.05;;;;;;;-2.12;63.57;99748.78;1749106;82;20930;-40
2022/11/20 05:18:51;;;;;;;20.23;14.47;;;;;;;-2.16;63.96;99735.77;1749170;82;21665;-40
2022/11/20 05:21:18;;;;;;;20.60;13.85;;;;;;;-2.11;63.91;99729.93;1748987;82;21001;-40
2022/11/20 05:23:45;;;;;;;20.55;14.25;;;;;;;-2.13;63.93;99721.98;1749216;82;21836;-39
2022/11/20 05:26:24;;;;;;;21.85;14.58;;;;;;;-2.16;64.00;99731.79;1749022;82;21008;-40
2022/11/20 05:28:51;;;;;;;21.73;14.28;;;;;;;-2.23;64.17;99732.08;1748930;81;21538;-40
2022/11/20 05:31:21;;;;;;;20.23;14.75;;;;;;;-2.27;64.43;99732.31;1748962;82;20994;-39
2022/11/20 05:33:48;;;;;;;20.35;14.30;;;;;;;-2.29;64.52;99738.44;1749356;82;21025;-40
2022/11/20 05:36:15;;;;;;;21.27;14.55;;;;;;;-2.27;64.65;99742.41;1748884;82;23289;-39
2022/11/20 05:38:43;;;;;;;23.60;15.30;;;;;;;-2.23;64.62;99740.05;1748975;82;21516;-40
2022/11/20 05:41:13;;;;;;;25.48;15.05;;;;;;;-2.22;64.80;99737.10;1749373;82;21510;-39
2022/11/20 05:43:43;;;;;;;24.40;16.12;;;;;;;-2.20;64.72;99734.19;1748613;82;21105;-40
2022/11/20 05:46:12;;;;;;;25.97;16.30;;;;;;;-2.17;64.87;99730.98;1749679;82;20926;-40
2022/11/20 05:48:41;;;;;;;28.32;18.20;;;;;;;-2.13;64.86;99720.09;1749301;82;21083;-39
2022/11/20 05:51:10;;;;;;;32.93;20.02;;;;;;;-2.12;64.82;99730.19;1749051;82;20957;-39
2022/11/20 05:53:36;;;;;;;34.63;20.37;;;;;;;-2.14;64.91;99732.33;1749496;82;21531;-39
2022/11/20 05:56:08;;;;;;;35.58;21.60;;;;;;;-2.18;64.99;99733.94;1749070;82;21459;-39
2022/11/20 05:58:34;;;;;;;34.08;21.70;;;;;;;-2.25;65.11;99735.52;1749187;82;21033;-40
2022/11/20 06:01:21;;;;;;;35.28;20.72;;;;;;;-2.29;65.41;99745.08;1749174;82;21498;-40
2022/11/20 10:54:48;;;;;;;25.25;19.62;;;;;;;0.75;71.24;99507.93;1870275;76;22639;-39
2022/11/20 10:57:32;;;;;;;28.57;20.95;;;;;;;0.72;70.79;99498.64;1823008;78;20899;-40
2022/11/20 11:00:05;;;;;;;29.45;19.77;;;;;;;0.59;70.59;99497.23;1822086;78;21124;-40
2022/11/20 11:02:37;;;;;;;28.00;21.05;;;;;;;0.54;70.88;99497.31;1822180;78;20970;-40
2022/11/20 11:05:26;;;;;;;29.32;20.70;;;;;;;0.48;71.16;99499.83;1821974;78;20993;-40
2022/11/20 11:07:55;;;;;;;29.65;21.60;;;;;;;0.48;71.39;99489.16;1822109;78;20954;-40
2022/11/20 11:10:41;;;;;;;29.63;21.73;;;;;;;0.47;71.59;99496.90;1822446;78;20977;-40
2022/11/20 11:13:10;;;;;;;29.72;20.62;;;;;;;0.45;71.23;99495.84;1822344;78;21052;-40
2022/11/20 11:15:41;;;;;;;29.23;19.98;;;;;;;0.43;71.02;99500.16;1778723;78;21574;-40
2022/11/20 11:18:10;;;;;;;29.40;20.12;;;;;;;0.40;70.91;99501.25;1822449;78;20966;-40
2022/11/20 11:20:37;;;;;;;27.87;20.35;;;;;;;0.31;71.01;99503.78;1822064;78;21657;-40
2022/11/20 11:23:05;;;;;;;27.85;20.12;;;;;;;0.25;71.28;99504.13;1822004;78;21512;-40
2022/11/20 11:25:34;;;;;;;25.75;19.42;;;;;;;0.22;71.36;99494.05;1822230;78;21281;-40
2022/11/20 11:28:07;;;;;;;26.50;19.85;;;;;;;0.16;71.41;99482.66;1822583;78;20950;-40
2022/11/20 11:30:43;;;;;;;28.87;20.97;;;;;;;0.11;71.71;99472.06;1810773;78;21113;-40
2022/11/20 11:33:20;;;;;;;27.50;20.65;;;;;;;0.14;71.93;99470.17;1822401;78;20935;-40
2022/11/20 11:36:00;;;;;;;28.40;21.35;;;;;;;0.15;71.88;99474.94;1822232;78;21017;-40
2022/11/20 11:38:40;;;;;;;31.05;21.40;;;;;;;0.16;71.99;99474.66;1822369;78;21137;-40
2022/11/20 11:41:09;;;;;;;34.73;25.43;;;;;;;0.16;72.07;99474.66;1790199;78;21012;-40
2022/11/20 11:46:29;;;;;;;32.75;24.15;;;;;;;0.22;71.78;99468.72;1822090;78;21001;-40
2022/11/20 11:49:00;;;;;;;32.28;22.13;;;;;;;0.18;71.85;99471.18;1822211;78;21042;-40
2022/11/20 11:51:38;;;;;;;33.55;23.65;;;;;;;0.19;71.83;99471.44;1822065;78;21228;-40
2022/11/20 11:54:10;;;;;;;32.00;23.00;;;;;;;0.22;71.95;99468.72;1826366;78;21067;-40
2022/11/20 11:56:38;;;;;;;31.60;22.55;;;;;;;0.25;71.69;99470.27;1827220;78;20950;-40
2022/11/20 11:59:06;;;;;;;31.00;22.37;;;;;;;0.24;71.59;99464.67;1827742;78;20978;-40
2022/11/20 12:01:44;;;;;;;29.23;21.82;;;;;;;0.29;71.66;99475.27;1827801;78;21005;-40
2022/11/20 12:04:23;;;;;;;33.92;23.83;;;;;;;0.29;71.65;99479.27;1826684;78;21434;-40
2022/11/20 12:07:01;;;;;;;32.70;23.32;;;;;;;0.36;71.56;99478.91;1826954;78;20958;-40
2022/11/20 12:09:35;;;;;;;31.62;22.35;;;;;;;0.40;71.40;99465.25;1827241;78;20958;-40
2022/11/20 12:12:09;;;;;;;33.18;23.32;;;;;;;0.38;71.24;99461.56;1826630;78;20993;-40
2022/11/20 12:14:44;;;;;;;34.53;22.73;;;;;;;0.32;71.52;99462.70;1827590;78;21045;-40
2022/11/20 12:17:13;;;;;;;31.70;23.55;;;;;;;0.32;71.89;99453.38;1827300;78;21446;-40
2022/11/20 12:19:40;;;;;;;35.23;25.48;;;;;;;0.32;71.75;99445.91;1827788;78;20922;-41
2022/11/20 12:22:35;;;;;;;37.63;26.30;;;;;;;0.26;71.81;99457.19;1827395;78;21519;-41
2022/11/20 12:25:22;;;;;;;39.35;25.97;;;;;;;0.25;72.03;99460.93;1827307;78;21009;-41
2022/11/20 12:28:08;;;;;;;40.78;27.35;;;;;;;0.25;72.08;99455.59;1786980;78;21029;-41
2022/11/20 12:30:46;;;;;;;38.13;26.00;;;;;;;0.23;72.52;99443.12;1827089;78;21210;-41
2022/11/20 12:33:42;;;;;;;37.73;26.27;;;;;;;0.21;72.75;99438.60;1791090;78;20969;-41
2022/11/20 12:36:23;;;;;;;39.80;26.45;;;;;;;0.27;72.54;99440.66;1769465;78;20978;-41
2022/11/20 12:39:23;;;;;;;38.98;25.48;;;;;;;0.22;72.38;99428.20;1826857;78;21025;-41
2022/11/20 12:45:44;;;;;;;38.48;27.13;;;;;;;0.17;72.77;99416.27;1827324;78;21789;-41
2022/11/20 12:48:32;;;;;;;38.85;26.62;;;;;;;0.24;73.01;99404.69;1827289;78;21751;-41
2022/11/20 12:51:36;;;;;;;31.30;22.37;;;;;;;0.26;73.09;99399.87;1827275;78;21492;-41
2022/11/20 12:54:37;;;;;;;34.63;25.08;;;;;;;0.23;72.98;99409.79;1823323;78;21397;-41
2022/11/20 12:57:32;;;;;;;35.58;25.75;;;;;;;0.21;73.37;99410.61;1821272;78;20987;-41
2022/11/20 13:00:20;;;;;;;37.05;24.00;;;;;;;0.30;73.26;99418.73;1819923;78;21210;-41
2022/11/20 13:03:16;;;;;;;33.02;25.70;;;;;;;0.34;73.19;99404.53;1821963;78;28807;-41
2022/11/20 13:06:11;;;;;;;37.42;24.98;;;;;;;0.33;73.09;99400.30;1821283;78;20958;-41
2022/11/20 13:08:45;;;;;;;35.30;24.98;;;;;;;0.36;73.28;99394.38;1821298;78;21519;-41
2022/11/20 13:11:36;;;;;;;37.13;25.02;;;;;;;0.42;72.96;99393.76;1813047;78;21065;-41
2022/11/20 13:14:28;;;;;;;42.85;26.37;;;;;;;0.41;72.86;99383.63;1815334;78;21136;-41
2022/11/20 13:17:21;;;;;;;47.35;26.80;;;;;;;0.36;72.78;99382.91;1821082;78;20966;-41
2022/11/20 13:19:54;;;;;;;40.30;26.00;;;;;;;0.25;73.05;99380.95;1821468;78;21002;-40
2022/11/20 13:22:27;;;;;;;44.90;27.32;;;;;;;0.21;73.37;99376.48;1821327;78;21511;-40
2022/11/20 13:24:54;;;;;;;40.30;25.60;;;;;;;0.22;73.38;99364.75;1821751;78;21012;-40
2022/11/20 13:27:23;;;;;;;39.90;25.80;;;;;;;0.19;73.63;99371.47;1821329;78;21248;-40
2022/11/20 13:30:03;;;;;;;36.25;24.52;;;;;;;0.15;73.46;99367.77;1821227;78;21566;-40
2022/11/20 13:32:31;;;;;;;34.05;24.67;;;;;;;0.11;73.65;99368.11;1821647;78;20962;-40
2022/11/20 13:35:01;;;;;;;35.35;25.75;;;;;;;0.10;73.60;99355.09;1821489;78;20923;-40
2022/11/20 13:37:33;;;;;;;38.20;27.22;;;;;;;0.07;73.83;99344.99;1815635;78;21042;-40
2022/11/20 13:40:14;;;;;;;36.33;26.35;;;;;;;0.12;73.93;99354.24;1821374;78;21295;-39
2022/11/20 13:42:55;;;;;;;44.50;28.55;;;;;;;0.12;74.11;99359.03;1820420;78;20970;-39
2022/11/20 13:45:29;;;;;;;38.25;25.85;;;;;;;0.15;74.21;99362.98;1821349;78;20985;-40
2022/11/20 13:47:56;;;;;;;41.20;27.30;;;;;;;0.15;74.28;99374.44;1821712;78;20997;-40
2022/11/20 13:50:45;;;;;;;38.50;25.45;;;;;;;0.20;74.09;99377.56;1821303;78;21038;-40
2022/11/20 13:53:33;;;;;;;39.95;24.95;;;;;;;0.22;74.11;99381.54;1822587;78;21091;-40
2022/11/20 13:56:17;;;;;;;38.23;25.70;;;;;;;0.32;74.05;99369.38;1829804;78;20961;-40
2022/11/20 13:58:59;;;;;;;39.98;25.12;;;;;;;0.32;73.78;99373.38;1830177;78;20973;-40
2022/11/20 14:01:28;;;;;;;34.85;24.23;;;;;;;0.35;73.83;99375.45;1830001;78;21077;-40
2022/11/20 14:03:55;;;;;;;40.63;24.92;;;;;;;0.34;73.70;99371.20;1801487;78;21002;-40
2022/11/20 14:06:31;;;;;;;36.00;24.18;;;;;;;0.34;73.45;99364.53;1830046;78;21138;-40
2022/11/20 14:08:59;;;;;;;42.15;23.07;;;;;;;0.29;73.46;99361.95;1829957;78;20981;-40
2022/11/20 14:11:28;;;;;;;31.97;22.05;;;;;;;0.24;73.37;99361.27;1830053;78;20961;-40
2022/11/20 14:14:05;;;;;;;24.95;17.60;;;;;;;0.19;73.36;99346.68;1830656;78;20918;-40
2022/11/20 14:16:35;;;;;;;40.10;24.35;;;;;;;0.14;73.76;99344.89;1830091;78;21029;-40
2022/11/20 14:19:21;;;;;;;;;;;;;;;0.14;73.82;99348.09;1832899;78;21843;-40
2022/11/20 14:21:53;;;;;;;35.28;21.60;;;;;;;0.12;73.74;99345.70;1829318;78;20426;-40
2022/11/20 14:24:21;;;;;;;36.95;22.15;;;;;;;0.03;74.13;99339.46;1830197;78;20954;-39
2022/11/20 14:26:50;;;;;;;39.43;23.00;;;;;;;0.07;73.93;99339.13;1830177;78;21026;-39
2022/11/20 14:29:19;;;;;;;34.48;21.97;;;;;;;0.06;73.78;99337.53;1830219;78;21833;-40
2022/11/20 14:31:47;;;;;;;34.50;21.37;;;;;;;0.04;73.85;99329.59;1830245;78;21238;-39
2022/11/20 14:34:26;;;;;;;31.85;20.37;;;;;;;0.01;73.97;99326.95;1830079;78;21009;-39
2022/11/20 14:36:57;;;;;;;28.38;19.75;;;;;;;-0.03;74.15;99335.28;1829677;78;20974;-40
2022/11/20 14:39:28;;;;;;;28.50;19.45;;;;;;;-0.06;74.18;99330.55;1830109;78;21033;-39
2022/11/20 14:41:55;;;;;;;29.50;19.98;;;;;;;-0.02;74.13;99331.55;1825603;78;21534;-39
2022/11/20 14:44:32;;;;;;;30.62;20.37;;;;;;;-0.03;74.18;99316.63;1829920;78;21103;-39
2022/11/20 14:47:01;;;;;;;29.20;20.23;;;;;;;-0.07;74.06;99303.10;1830037;78;21771;-40
2022/11/20 14:49:29;;;;;;;32.13;21.77;;;;;;;-0.12;74.20;99297.05;1830256;78;20957;-40
2022/11/20 14:52:01;;;;;;;32.85;20.62;;;;;;;-0.13;74.36;99290.14;1830025;78;20950;-40
2022/11/20 14:54:29;;;;;;;28.23;20.30;;;;;;;-0.10;74.34;99282.91;1824506;78;21077;-40
2022/11/20 14:57:04;;;;;;;30.72;20.45;;;;;;;-0.16;74.33;99280.07;1828001;78;21579;-40
2022/11/20 14:59:33;;;;;;;29.18;19.92;;;;;;;-0.14;74.36;99293.88;1830265;78;21038;-40
2022/11/20 15:02:10;;;;;;;26.40;18.92;;;;;;;-0.15;74.42;99311.77;1830223;78;20998;-40
2022/11/20 15:04:51;;;;;;;25.25;18.32;;;;;;;-0.10;74.45;99318.89;1777530;78;21036;-40
2022/11/20 15:07:30;;;;;;;27.55;18.85;;;;;;;-0.10;74.39;99314.89;1802621;78;21042;-40
2022/11/20 15:10:11;;;;;;;29.30;20.10;;;;;;;-0.10;74.21;99328.21;1830320;78;21133;-40
2022/11/20 15:12:51;;;;;;;26.40;18.45;;;;;;;-0.14;74.37;99323.98;1811685;78;21034;-40
2022/11/20 15:15:47;;;;;;;29.35;19.37;;;;;;;-0.10;74.67;99324.22;1829826;78;21318;-40
2022/11/20 15:18:18;;;;;;;31.37;20.25;;;;;;;-0.01;74.66;99328.59;1797930;78;21030;-40
2022/11/20 15:20:46;;;;;;;28.20;19.25;;;;;;;0.02;74.25;99317.88;1830050;78;21038;-40
2022/11/20 15:23:18;;;;;;;28.45;20.27;;;;;;;0.05;74.25;99315.19;1829786;78;21077;-40
2022/11/20 15:25:45;;;;;;;27.62;19.57;;;;;;;0.09;74.09;99318.31;1829749;78;20978;-40
2022/11/20 15:28:30;;;;;;;28.05;20.50;;;;;;;0.17;74.07;99326.17;1802353;78;20997;-40
2022/11/20 15:30:57;;;;;;;29.85;20.08;;;;;;;0.23;74.12;99330.34;1828890;78;21025;-41
2022/11/20 15:33:24;;;;;;;27.82;19.07;;;;;;;0.27;73.62;99330.80;1829832;78;21065;-41
2022/11/20 15:35:51;;;;;;;29.25;19.95;;;;;;;0.22;73.53;99329.55;1829725;78;23129;-41
2022/11/20 15:38:18;;;;;;;26.93;19.00;;;;;;;0.23;73.54;99331.14;1829730;78;21018;-41
2022/11/20 15:40:45;;;;;;;27.05;19.62;;;;;;;0.21;73.46;99322.63;1830041;78;20993;-41
2022/11/20 15:43:12;;;;;;;28.23;19.23;;;;;;;0.19;73.51;99318.69;1830037;78;20958;-41
2022/11/20 15:46:03;;;;;;;27.65;19.30;;;;;;;0.16;73.56;99305.92;1830178;78;21057;-41
2022/11/20 15:48:43;;;;;;;29.00;19.12;;;;;;;0.12;73.62;99295.06;1829943;78;23136;-41
2022/11/20 15:51:24;;;;;;;31.05;20.62;;;;;;;0.05;73.82;99285.30;1823927;78;21764;-41
2022/11/20 15:53:52;;;;;;;30.12;20.68;;;;;;;0.00;74.20;99280.85;1830217;78;20961;-41
2022/11/20 15:56:19;;;;;;;28.57;19.98;;;;;;;-0.05;74.60;99286.83;1829986;78;21612;-41
2022/11/20 15:58:47;;;;;;;30.15;20.43;;;;;;;-0.06;74.72;99286.04;1830193;78;20950;-41
2022/11/20 16:01:19;;;;;;;31.27;19.32;;;;;;;-0.08;74.81;99282.06;1830369;78;21239;-41
2022/11/20 16:03:46;;;;;;;27.50;18.57;;;;;;;-0.07;74.76;99267.66;1830224;78;20938;-41
2022/11/20 16:06:15;;;;;;;28.40;18.90;;;;;;;-0.09;74.78;99275.15;1830141;78;21072;-41
2022/11/20 16:08:43;;;;;;;28.50;18.90;;;;;;;-0.11;74.98;99275.45;1830115;78;20993;-41
2022/11/20 16:11:16;;;;;;;22.50;16.50;;;;;;;-0.11;75.07;99262.67;1829942;78;21057;-41
2022/11/20 16:16:36;;;;;;;24.35;17.48;;;;;;;-0.13;75.24;99279.48;1830131;78;20934;-41
2022/11/20 16:19:04;;;;;;;26.65;16.95;;;;;;;-0.15;75.17;99279.00;1829862;78;21468;-41
2022/11/20 16:21:32;;;;;;;25.88;19.07;;;;;;;-0.19;75.51;99275.30;1829957;78;21572;-41
2022/11/20 16:24:04;;;;;;;29.20;21.05;;;;;;;-0.16;75.63;99279.53;1824120;78;20981;-39
2022/11/20 16:26:32;;;;;;;30.17;20.23;;;;;;;-0.17;75.83;99278.48;1830321;78;21742;-39
2022/11/20 16:29:00;;;;;;;30.97;21.25;;;;;;;-0.14;75.79;99276.56;1829915;78;21018;-39
2022/11/20 16:31:26;;;;;;;30.25;20.55;;;;;;;-0.15;75.86;99270.47;1830119;78;21022;-39
2022/11/20 16:33:58;;;;;;;27.17;19.25;;;;;;;-0.13;75.88;99263.49;1830082;78;20954;-39
2022/11/20 16:36:27;;;;;;;27.30;20.12;;;;;;;-0.11;75.94;99254.68;1830290;78;21037;-40
2022/11/20 16:38:55;;;;;;;27.03;18.37;;;;;;;-0.04;75.70;99259.08;1830200;78;21554;-40
2022/11/20 16:41:22;;;;;;;29.82;19.17;;;;;;;-0.06;75.54;99266.59;1830188;78;20973;-40
2022/11/20 16:43:54;;;;;;;28.07;17.25;;;;;;;-0.02;75.54;99272.91;1829882;78;20954;-40
2022/11/20 16:46:22;;;;;;;27.32;17.95;;;;;;;-0.03;75.12;99271.33;1829896;78;21572;-40
2022/11/20 16:49:01;;;;;;;25.55;17.85;;;;;;;-0.09;75.20;99273.81;1830026;78;21067;-40
2022/11/20 16:51:31;;;;;;;26.48;17.20;;;;;;;-0.12;75.22;99270.41;1829924;78;22187;-39